Terminal Aerodrome Forecast
Issued by NWS Twin Cities, MN

Home | Current Version | Previous Version | Text Only | Print | Product List | Glossary Off
Versions: 1 2 3 4 5 6 7 8 9 10 11 12 13 14 15 16 17 18 19 20 21 22 23 24 25

147
FTUS43 KMPX 200520
TAFMSP
TAF
KMSP 200520Z 2006/2112 VRB03KT P6SM BKN250
      TEMPO 2010/2014 5SM BR
     FM201600 26003KT P6SM OVC100
     FM210400 00000KT P6SM BKN020=

USA.gov is the U.S. government's official web portal to all federal, state and local government web resources and services.